sensor_id;sensor_type;location;lat;lon;timestamp;P1;durP1;ratioP1;P2;durP2;ratioP2
61248;SDS011;47119;49.130;9.218;2024-03-23T06:26:40;0.98;;;0.70;;
61248;SDS011;47119;49.130;9.218;2024-03-23T07:11:12;0.30;;;0.30;;
61248;SDS011;47119;49.130;9.218;2024-03-23T07:13:49;0.20;;;0.20;;
61248;SDS011;47119;49.130;9.218;2024-03-23T07:16:16;0.30;;;0.30;;
61248;SDS011;47119;49.130;9.218;2024-03-23T07:18:44;0.15;;;0.15;;
61248;SDS011;47119;49.130;9.218;2024-03-23T07:21:10;0.28;;;0.28;;
61248;SDS011;47119;49.130;9.218;2024-03-23T07:23:46;0.43;;;0.43;;
61248;SDS011;47119;49.130;9.218;2024-03-23T07:26:13;0.60;;;0.60;;
61248;SDS011;47119;49.130;9.218;2024-03-23T07:28:43;0.15;;;0.15;;
61248;SDS011;47119;49.130;9.218;2024-03-23T07:31:10;0.10;;;0.10;;
61248;SDS011;47119;49.130;9.218;2024-03-23T07:33:41;0.10;;;0.10;;
61248;SDS011;47119;49.130;9.218;2024-03-23T07:36:09;0.28;;;0.28;;
61248;SDS011;47119;49.130;9.218;2024-03-23T07:38:37;0.22;;;0.22;;
61248;SDS011;47119;49.130;9.218;2024-03-23T07:41:14;0.00;;;0.00;;
61248;SDS011;47119;49.130;9.218;2024-03-23T07:43:46;0.35;;;0.35;;
61248;SDS011;47119;49.130;9.218;2024-03-23T07:46:15;0.38;;;0.38;;
61248;SDS011;47119;49.130;9.218;2024-03-23T07:48:44;0.00;;;0.00;;
61248;SDS011;47119;49.130;9.218;2024-03-23T07:51:10;0.32;;;0.32;;
61248;SDS011;47119;49.130;9.218;2024-03-23T07:53:44;0.17;;;0.17;;
61248;SDS011;47119;49.130;9.218;2024-03-23T07:56:11;0.20;;;0.20;;
61248;SDS011;47119;49.130;9.218;2024-03-23T07:58:49;0.10;;;0.10;;
61248;SDS011;47119;49.130;9.218;2024-03-23T08:01:16;0.25;;;0.25;;
61248;SDS011;47119;49.130;9.218;2024-03-23T08:03:44;0.20;;;0.20;;
61248;SDS011;47119;49.130;9.218;2024-03-23T08:06:12;0.10;;;0.10;;
61248;SDS011;47119;49.130;9.218;2024-03-23T08:08:44;0.20;;;0.20;;
61248;SDS011;47119;49.130;9.218;2024-03-23T08:11:13;0.00;;;0.00;;
61248;SDS011;47119;49.130;9.218;2024-03-23T08:13:44;0.10;;;0.10;;
61248;SDS011;47119;49.130;9.218;2024-03-23T08:16:15;0.38;;;0.38;;
61248;SDS011;47119;49.130;9.218;2024-03-23T08:18:44;0.10;;;0.10;;
61248;SDS011;47119;49.130;9.218;2024-03-23T08:21:11;0.00;;;0.00;;
61248;SDS011;47119;49.130;9.218;2024-03-23T08:23:44;0.43;;;0.43;;
61248;SDS011;47119;49.130;9.218;2024-03-23T08:26:24;0.13;;;0.13;;
61248;SDS011;47119;49.130;9.218;2024-03-23T08:28:54;0.10;;;0.10;;
61248;SDS011;47119;49.130;9.218;2024-03-23T08:35:28;0.10;;;0.10;;
61248;SDS011;47119;49.130;9.218;2024-03-23T08:37:59;0.75;;;0.50;;
61248;SDS011;47119;49.130;9.218;2024-03-23T08:40:40;0.05;;;0.05;;
61248;SDS011;47119;49.130;9.218;2024-03-23T08:43:11;0.20;;;0.20;;
61248;SDS011;47119;49.130;9.218;2024-03-23T08:45:44;0.70;;;0.70;;
61248;SDS011;47119;49.130;9.218;2024-03-23T08:48:10;0.10;;;0.10;;
61248;SDS011;47119;49.130;9.218;2024-03-23T08:50:40;0.30;;;0.30;;
61248;SDS011;47119;49.130;9.218;2024-03-23T08:53:09;0.32;;;0.32;;
61248;SDS011;47119;49.130;9.218;2024-03-23T10:20:25;0.45;;;0.45;;
61248;SDS011;47119;49.130;9.218;2024-03-23T10:22:55;2.30;;;0.60;;
61248;SDS011;47119;49.130;9.218;2024-03-23T10:25:22;0.80;;;0.50;;
61248;SDS011;47119;49.130;9.218;2024-03-23T10:27:58;0.40;;;0.40;;
61248;SDS011;47119;49.130;9.218;2024-03-23T10:30:28;0.30;;;0.30;;
61248;SDS011;47119;49.130;9.218;2024-03-23T10:33:06;0.40;;;0.40;;
61248;SDS011;47119;49.130;9.218;2024-03-23T10:35:48;0.03;;;0.03;;
61248;SDS011;47119;49.130;9.218;2024-03-23T10:43:16;4.07;;;0.40;;
61248;SDS011;47119;49.130;9.218;2024-03-23T10:45:43;0.75;;;0.75;;
61248;SDS011;47119;49.130;9.218;2024-03-23T10:48:09;1.02;;;0.22;;
61248;SDS011;47119;49.130;9.218;2024-03-23T10:50:43;0.50;;;0.45;;
61248;SDS011;47119;49.130;9.218;2024-03-23T10:57:17;2.95;;;0.52;;
61248;SDS011;47119;49.130;9.218;2024-03-23T11:01:16;2.83;;;0.90;;
61248;SDS011;47119;49.130;9.218;2024-03-23T11:12:39;0.38;;;0.38;;
61248;SDS011;47119;49.130;9.218;2024-03-23T11:18:26;0.30;;;0.30;;
61248;SDS011;47119;49.130;9.218;2024-03-23T11:21:04;0.20;;;0.20;;
61248;SDS011;47119;49.130;9.218;2024-03-23T11:24:23;0.22;;;0.22;;
61248;SDS011;47119;49.130;9.218;2024-03-23T11:27:09;0.10;;;0.10;;
61248;SDS011;47119;49.130;9.218;2024-03-23T11:29:42;0.38;;;0.38;;
61248;SDS011;47119;49.130;9.218;2024-03-23T11:32:21;0.22;;;0.22;;
61248;SDS011;47119;49.130;9.218;2024-03-23T11:35:02;0.88;;;0.82;;
61248;SDS011;47119;49.130;9.218;2024-03-23T11:37:29;0.65;;;0.65;;
61248;SDS011;47119;49.130;9.218;2024-03-23T11:40:23;0.30;;;0.30;;
61248;SDS011;47119;49.130;9.218;2024-03-23T11:43:07;1.95;;;0.30;;
61248;SDS011;47119;49.130;9.218;2024-03-23T11:45:49;1.20;;;0.30;;
61248;SDS011;47119;49.130;9.218;2024-03-23T11:48:21;0.08;;;0.08;;
61248;SDS011;47119;49.130;9.218;2024-03-23T11:50:59;0.30;;;0.30;;
61248;SDS011;47119;49.130;9.218;2024-03-23T11:53:37;0.55;;;0.55;;
61248;SDS011;47119;49.130;9.218;2024-03-23T11:56:10;0.85;;;0.50;;
61248;SDS011;47119;49.130;9.218;2024-03-23T11:58:36;0.43;;;0.43;;
61248;SDS011;47119;49.130;9.218;2024-03-23T12:01:09;0.43;;;0.32;;
61248;SDS011;47119;49.130;9.218;2024-03-23T12:03:38;1.73;;;0.55;;
61248;SDS011;47119;49.130;9.218;2024-03-23T12:06:19;1.83;;;0.68;;
61248;SDS011;47119;49.130;9.218;2024-03-23T12:08:45;0.10;;;0.10;;
61248;SDS011;47119;49.130;9.218;2024-03-23T12:11:15;0.10;;;0.10;;
61248;SDS011;47119;49.130;9.218;2024-03-23T12:13:43;1.65;;;0.55;;
61248;SDS011;47119;49.130;9.218;2024-03-23T12:16:18;0.70;;;0.70;;
61248;SDS011;47119;49.130;9.218;2024-03-23T12:18:46;0.75;;;0.75;;
61248;SDS011;47119;49.130;9.218;2024-03-23T12:21:17;0.20;;;0.20;;
61248;SDS011;47119;49.130;9.218;2024-03-23T12:23:50;0.13;;;0.13;;
61248;SDS011;47119;49.130;9.218;2024-03-23T12:26:18;0.05;;;0.05;;
61248;SDS011;47119;49.130;9.218;2024-03-23T12:28:44;0.22;;;0.22;;
61248;SDS011;47119;49.130;9.218;2024-03-23T12:31:11;0.10;;;0.10;;
61248;SDS011;47119;49.130;9.218;2024-03-23T12:33:40;0.00;;;0.00;;
61248;SDS011;47119;49.130;9.218;2024-03-23T12:36:12;0.30;;;0.30;;
61248;SDS011;47119;49.130;9.218;2024-03-23T12:38:38;0.10;;;0.10;;
61248;SDS011;47119;49.130;9.218;2024-03-23T12:41:08;0.08;;;0.08;;
61248;SDS011;47119;49.130;9.218;2024-03-23T12:43:39;0.57;;;0.38;;
61248;SDS011;47119;49.130;9.218;2024-03-23T12:46:06;1.85;;;1.05;;
61248;SDS011;47119;49.130;9.218;2024-03-23T12:48:38;0.60;;;0.60;;
61248;SDS011;47119;49.130;9.218;2024-03-23T12:51:07;0.25;;;0.25;;
61248;SDS011;47119;49.130;9.218;2024-03-23T12:53:33;5.15;;;0.50;;
61248;SDS011;47119;49.130;9.218;2024-03-23T12:56:00;0.80;;;0.80;;
61248;SDS011;47119;49.130;9.218;2024-03-23T12:58:26;0.70;;;0.50;;
61248;SDS011;47119;49.130;9.218;2024-03-23T13:00:59;0.32;;;0.32;;
61248;SDS011;47119;49.130;9.218;2024-03-23T13:03:27;1.45;;;0.60;;
61248;SDS011;47119;49.130;9.218;2024-03-23T13:05:58;0.22;;;0.22;;
61248;SDS011;47119;49.130;9.218;2024-03-23T13:08:27;0.22;;;0.22;;
61248;SDS011;47119;49.130;9.218;2024-03-23T13:10:56;0.17;;;0.17;;
61248;SDS011;47119;49.130;9.218;2024-03-23T13:13:25;1.98;;;0.50;;
61248;SDS011;47119;49.130;9.218;2024-03-23T13:15:52;0.05;;;0.05;;
61248;SDS011;47119;49.130;9.218;2024-03-23T13:18:25;9.45;;;0.55;;
61248;SDS011;47119;49.130;9.218;2024-03-23T13:20:54;0.10;;;0.10;;
61248;SDS011;47119;49.130;9.218;2024-03-23T13:23:20;0.43;;;0.43;;
61248;SDS011;47119;49.130;9.218;2024-03-23T13:25:50;2.42;;;1.20;;
61248;SDS011;47119;49.130;9.218;2024-03-23T13:28:22;1.10;;;0.77;;
61248;SDS011;47119;49.130;9.218;2024-03-23T13:30:52;1.48;;;0.80;;
61248;SDS011;47119;49.130;9.218;2024-03-23T13:33:21;0.25;;;0.25;;
61248;SDS011;47119;49.130;9.218;2024-03-23T13:35:53;0.13;;;0.13;;
61248;SDS011;47119;49.130;9.218;2024-03-23T13:38:20;0.20;;;0.20;;
61248;SDS011;47119;49.130;9.218;2024-03-23T13:40:51;5.18;;;0.55;;
61248;SDS011;47119;49.130;9.218;2024-03-23T13:43:21;0.13;;;0.13;;
61248;SDS011;47119;49.130;9.218;2024-03-23T13:49:25;0.20;;;0.20;;
61248;SDS011;47119;49.130;9.218;2024-03-23T13:53:26;0.60;;;0.60;;
61248;SDS011;47119;49.130;9.218;2024-03-23T13:56:13;1.20;;;0.65;;
61248;SDS011;47119;49.130;9.218;2024-03-23T13:58:57;1.85;;;1.08;;
61248;SDS011;47119;49.130;9.218;2024-03-23T14:02:38;0.17;;;0.17;;
61248;SDS011;47119;49.130;9.218;2024-03-23T18:22:19;0.40;;;0.32;;
61248;SDS011;47119;49.130;9.218;2024-03-23T18:24:46;0.25;;;0.25;;
61248;SDS011;47119;49.130;9.218;2024-03-23T18:27:15;0.10;;;0.10;;
61248;SDS011;47119;49.130;9.218;2024-03-23T18:29:44;0.10;;;0.10;;
61248;SDS011;47119;49.130;9.218;2024-03-23T18:32:14;0.13;;;0.13;;
61248;SDS011;47119;49.130;9.218;2024-03-23T18:34:41;0.40;;;0.40;;
61248;SDS011;47119;49.130;9.218;2024-03-23T18:37:07;0.05;;;0.05;;
61248;SDS011;47119;49.130;9.218;2024-03-23T18:39:35;0.30;;;0.30;;
61248;SDS011;47119;49.130;9.218;2024-03-23T18:42:04;0.82;;;0.80;;
61248;SDS011;47119;49.130;9.218;2024-03-23T18:44:32;4.85;;;2.80;;
61248;SDS011;47119;49.130;9.218;2024-03-23T18:47:01;2.28;;;1.90;;
61248;SDS011;47119;49.130;9.218;2024-03-23T18:49:32;11.55;;;3.20;;
61248;SDS011;47119;49.130;9.218;2024-03-23T18:52:03;4.63;;;2.60;;
61248;SDS011;47119;49.130;9.218;2024-03-23T18:54:34;2.85;;;2.65;;
61248;SDS011;47119;49.130;9.218;2024-03-23T18:57:03;5.65;;;1.75;;
61248;SDS011;47119;49.130;9.218;2024-03-23T18:59:33;0.68;;;0.68;;
61248;SDS011;47119;49.130;9.218;2024-03-23T19:02:03;0.47;;;0.47;;
61248;SDS011;47119;49.130;9.218;2024-03-23T19:04:31;8.55;;;2.05;;
61248;SDS011;47119;49.130;9.218;2024-03-23T19:06:57;1.60;;;1.50;;
61248;SDS011;47119;49.130;9.218;2024-03-23T19:09:26;1.38;;;1.30;;
61248;SDS011;47119;49.130;9.218;2024-03-23T19:11:56;1.33;;;1.20;;
61248;SDS011;47119;49.130;9.218;2024-03-23T19:14:24;1.85;;;0.82;;
61248;SDS011;47119;49.130;9.218;2024-03-23T19:16:52;0.55;;;0.55;;
61248;SDS011;47119;49.130;9.218;2024-03-23T19:19:20;0.40;;;0.40;;
61248;SDS011;47119;49.130;9.218;2024-03-23T19:21:46;0.35;;;0.35;;
61248;SDS011;47119;49.130;9.218;2024-03-23T19:47:36;1.52;;;1.40;;
61248;SDS011;47119;49.130;9.218;2024-03-23T19:50:03;2.20;;;1.77;;
61248;SDS011;47119;49.130;9.218;2024-03-23T19:52:30;0.20;;;0.20;;
61248;SDS011;47119;49.130;9.218;2024-03-23T19:54:59;0.52;;;0.52;;
61248;SDS011;47119;49.130;9.218;2024-03-23T19:57:26;0.20;;;0.20;;
61248;SDS011;47119;49.130;9.218;2024-03-23T19:59:58;0.20;;;0.20;;
61248;SDS011;47119;49.130;9.218;2024-03-23T20:02:26;0.40;;;0.40;;
61248;SDS011;47119;49.130;9.218;2024-03-23T20:04:57;0.22;;;0.22;;
61248;SDS011;47119;49.130;9.218;2024-03-23T20:07:23;8.55;;;0.60;;
61248;SDS011;47119;49.130;9.218;2024-03-23T20:09:55;0.10;;;0.10;;
61248;SDS011;47119;49.130;9.218;2024-03-23T20:12:24;0.35;;;0.35;;
61248;SDS011;47119;49.130;9.218;2024-03-23T20:14:53;0.20;;;0.20;;
61248;SDS011;47119;49.130;9.218;2024-03-23T20:17:22;0.40;;;0.40;;
61248;SDS011;47119;49.130;9.218;2024-03-23T20:19:50;0.38;;;0.38;;
61248;SDS011;47119;49.130;9.218;2024-03-23T20:22:20;0.90;;;0.88;;
61248;SDS011;47119;49.130;9.218;2024-03-23T20:24:47;0.45;;;0.45;;
61248;SDS011;47119;49.130;9.218;2024-03-23T20:27:15;0.43;;;0.43;;
61248;SDS011;47119;49.130;9.218;2024-03-23T20:29:47;0.27;;;0.27;;
61248;SDS011;47119;49.130;9.218;2024-03-23T20:32:21;0.43;;;0.43;;
61248;SDS011;47119;49.130;9.218;2024-03-23T20:34:50;0.40;;;0.40;;
61248;SDS011;47119;49.130;9.218;2024-03-23T20:37:17;0.15;;;0.15;;
61248;SDS011;47119;49.130;9.218;2024-03-23T20:39:46;0.30;;;0.30;;
61248;SDS011;47119;49.130;9.218;2024-03-23T20:42:15;0.70;;;0.70;;
61248;SDS011;47119;49.130;9.218;2024-03-23T20:44:41;0.25;;;0.25;;
61248;SDS011;47119;49.130;9.218;2024-03-23T20:47:16;0.43;;;0.43;;
61248;SDS011;47119;49.130;9.218;2024-03-23T20:49:46;0.47;;;0.47;;
61248;SDS011;47119;49.130;9.218;2024-03-23T20:52:17;0.20;;;0.20;;
61248;SDS011;47119;49.130;9.218;2024-03-23T20:54:53;0.43;;;0.43;;
61248;SDS011;47119;49.130;9.218;2024-03-23T20:57:21;1.90;;;1.80;;
61248;SDS011;47119;49.130;9.218;2024-03-23T21:00:02;0.75;;;0.75;;
61248;SDS011;47119;49.130;9.218;2024-03-23T21:02:46;0.20;;;0.20;;
61248;SDS011;47119;49.130;9.218;2024-03-23T21:05:27;0.13;;;0.13;;
61248;SDS011;47119;49.130;9.218;2024-03-23T21:16:50;0.20;;;0.20;;
61248;SDS011;47119;49.130;9.218;2024-03-23T21:19:28;0.40;;;0.40;;
61248;SDS011;47119;49.130;9.218;2024-03-23T21:21:59;0.10;;;0.10;;
61248;SDS011;47119;49.130;9.218;2024-03-23T21:24:30;0.08;;;0.08;;
61248;SDS011;47119;49.130;9.218;2024-03-23T21:27:09;0.35;;;0.35;;
61248;SDS011;47119;49.130;9.218;2024-03-23T21:29:41;0.30;;;0.30;;
61248;SDS011;47119;49.130;9.218;2024-03-23T21:32:14;0.75;;;0.45;;
61248;SDS011;47119;49.130;9.218;2024-03-23T21:34:49;0.10;;;0.10;;
61248;SDS011;47119;49.130;9.218;2024-03-23T21:37:23;0.20;;;0.20;;
61248;SDS011;47119;49.130;9.218;2024-03-23T21:39:55;0.47;;;0.47;;
61248;SDS011;47119;49.130;9.218;2024-03-23T21:42:25;0.30;;;0.30;;
61248;SDS011;47119;49.130;9.218;2024-03-23T21:45:09;1.93;;;1.83;;
61248;SDS011;47119;49.130;9.218;2024-03-23T21:47:51;0.47;;;0.47;;
61248;SDS011;47119;49.130;9.218;2024-03-23T21:50:18;0.43;;;0.43;;
61248;SDS011;47119;49.130;9.218;2024-03-23T21:52:45;0.25;;;0.25;;
61248;SDS011;47119;49.130;9.218;2024-03-23T21:55:27;0.43;;;0.43;;
61248;SDS011;47119;49.130;9.218;2024-03-23T21:58:34;0.30;;;0.30;;
61248;SDS011;47119;49.130;9.218;2024-03-23T22:01:20;0.47;;;0.47;;
61248;SDS011;47119;49.130;9.218;2024-03-23T22:04:00;0.25;;;0.25;;
61248;SDS011;47119;49.130;9.218;2024-03-23T22:06:28;2.90;;;0.85;;
61248;SDS011;47119;49.130;9.218;2024-03-23T22:08:54;0.43;;;0.43;;
61248;SDS011;47119;49.130;9.218;2024-03-23T22:11:25;0.38;;;0.38;;
61248;SDS011;47119;49.130;9.218;2024-03-23T22:13:51;0.05;;;0.05;;
61248;SDS011;47119;49.130;9.218;2024-03-23T22:16:21;0.10;;;0.10;;
61248;SDS011;47119;49.130;9.218;2024-03-23T22:18:51;0.10;;;0.10;;
61248;SDS011;47119;49.130;9.218;2024-03-23T22:21:22;0.13;;;0.13;;
61248;SDS011;47119;49.130;9.218;2024-03-23T22:23:51;0.38;;;0.38;;
61248;SDS011;47119;49.130;9.218;2024-03-23T22:26:21;0.25;;;0.25;;
61248;SDS011;47119;49.130;9.218;2024-03-23T22:28:56;0.40;;;0.40;;
61248;SDS011;47119;49.130;9.218;2024-03-23T22:31:49;0.17;;;0.17;;
61248;SDS011;47119;49.130;9.218;2024-03-23T22:34:29;0.40;;;0.40;;
61248;SDS011;47119;49.130;9.218;2024-03-23T22:37:03;0.30;;;0.30;;
61248;SDS011;47119;49.130;9.218;2024-03-23T22:40:14;0.35;;;0.35;;
61248;SDS011;47119;49.130;9.218;2024-03-23T22:43:02;0.55;;;0.30;;
61248;SDS011;47119;49.130;9.218;2024-03-23T22:45:38;0.30;;;0.30;;
61248;SDS011;47119;49.130;9.218;2024-03-23T22:48:11;0.10;;;0.10;;
61248;SDS011;47119;49.130;9.218;2024-03-23T22:51:17;0.20;;;0.20;;
61248;SDS011;47119;49.130;9.218;2024-03-23T22:53:45;0.28;;;0.28;;
61248;SDS011;47119;49.130;9.218;2024-03-23T22:56:21;0.10;;;0.10;;
61248;SDS011;47119;49.130;9.218;2024-03-23T23:00:01;0.40;;;0.40;;
